x

St Georges - 8nm Nw Of Crescent City, Ca (46027) Wave Buoy

11:50pm - Wed 16th Apr 2014 All times are PDT. -7 hours from GMT.

  • Sig Wave height 6.9ft
  • Swell Direction
  • Peak Period 11s
  • Average Period 7s
  • Wind
    16mph, 20mph gusts
  • Sea Temp 46°f
  • Air Temp 46°f
  • Sea Pressure 1017.2mb
  • St Georges - 8nm Nw Of Crescent City, Ca
  • St Georges - 8nm Nw Of Crescent City, Ca

More Historic Weather Station data

Upgrade to MSW Pro to gain access to the past 30 days of data for over 8000 Wavebouys and Weather Stations around the globe.

Join Pro

Comparision Forecast

View Surf forecast
   
Wed 04/16 11:50pm 7ft 11s 7s 16 20 mph 1017.2mb 46f 46f
10:50pm 6ft 13s 6s 18 22 mph 1017.6mb 46f 46f
9:50pm 6ft 11s 6s 20 27 mph 1017.9mb 47f 46f
8:50pm 5.5ft 11s 6s 16 18 mph 1017.8mb 47f 46f
7:50pm 5.5ft 11s 6s 16 20 mph 1018.1mb 47f 46f
6:50pm  -   -   -  18 20 mph 1018.3mb 47f 47f
5:50pm 5.5ft 9s 6s 18 22 mph 1018.5mb 47f 47f
4:50pm 6ft 11s 6s 20 25 mph 1018.5mb 47f 47f
3:50pm 6ft 11s 6s 20 22 mph 1019.1mb 47f 47f
2:50pm 6ft 12s 6s 20 25 mph 1019.5mb 47f 47f
1:50pm 6ft 9s 6s 22 27 mph 1019.6mb 47f 47f
12:50pm 6ft 9s 6s 20 25 mph 1019.9mb 47f 47f
11:50am 6ft 12s 6s 20 22 mph 1020.2mb 47f 47f
10:50am 5.5ft 11s 6s 18 20 mph 1020.4mb 47f 47f
9:50am 6ft 11s 6s 18 20 mph 1020.7mb 46f 46f
8:50am 6ft 11s 6s 16 18 mph 1021.1mb 46f 46f
7:50am 6ft 9s 6s 16 20 mph 1021.1mb 46f 45f
6:50am 6ft 12s 6s 18 22 mph 1020.9mb 46f 45f
5:50am 6ft 10s 6s 18 20 mph 1020.7mb 47f 46f
4:50am 7ft 11s 6s 20 25 mph 1020.7mb 47f 46f
3:50am 8.5ft 11s 6s 25 29 mph 1020.3mb 47f 46f
2:50am  -   -   -  27
mph
1020.3mb - 46f
1:50am 9ft 11s 6s 27 34 mph 1020.3mb 47f 46f
12:50am 9ft 11s 6s 25 31 mph 1020.3mb 47f 47f
Tue 04/15 11:50pm 8.5ft 11s 6s 27 34 mph 1019.9mb 47f 46f
10:50pm 9ft 6s 6s 29 38 mph 1019.7mb 47f 46f
9:50pm 10ft 7s 6s 34 40 mph 1019.3mb 47f 46f
8:50pm 10ft 11s 6s 31 38 mph 1019.3mb 47f 46f
6:50pm 10ft 12s 6s 34 38 mph 1019.6mb 48f 46f
5:50pm 10.5ft 11s 6s 34 40 mph 1019.6mb 48f 47f
4:50pm 10ft 12s 6s 34 43 mph 1019.9mb 48f 47f
3:50pm  -   -   -  34 43 mph 1020.5mb 47f 47f
2:50pm 9ft 12s 6s 31 40 mph 1021.1mb 47f 46f
1:50pm 8ft 7s 6s 31 40 mph 1021.7mb 47f 46f
12:50pm  -   -   -  29 36 mph 1022.2mb 47f 46f
11:50am  -   -   -  25 31 mph 1022.4mb 47f 46f
10:50am 7.5ft 6s 6s 25 29 mph 1022.8mb 47f 46f
9:50am 7ft 7s 6s 22 27 mph 1022.9mb 47f 46f
8:50am 8ft 7s 6s 25 31 mph 1022.8mb 47f 46f
7:50am 7.5ft 7s 6s 25 29 mph 1022.9mb 47f 45f
6:50am 7.5ft 7s 6s 27 31 mph 1022.6mb 47f 45f
5:50am 8ft 7s 6s 20 25 mph 1022.7mb 47f 46f
4:50am 7.5ft 8s 6s 20 25 mph 1022.6mb 47f 46f
3:50am 8.5ft 7s 6s 20 27 mph 1022.9mb 47f 46f
2:50am 8ft 7s 6s 25 31 mph 1022.9mb 47f 46f
1:50am 8.5ft 7s 6s 27 34 mph 1023.1mb 47f 46f
12:50am 8ft 7s 6s 27 31 mph 1022.5mb 48f 46f
Mon 04/14 11:50pm 8ft 7s 6s 25 29 mph 1023mb 48f 46f
10:50pm 8ft 7s 6s 25 29 mph 1022.8mb 48f 46f
9:50pm 9ft 7s 6s 27 34 mph 1022.7mb 48f 47f
8:50pm 8ft 8s 6s 29 36 mph 1021.8mb 48f 46f
7:50pm 8ft 7s 6s 27 34 mph 1021.5mb 48f 47f
6:50pm 9ft 7s 6s 25 31 mph 1021.2mb 48f 47f
5:50pm  -   -   -  27 34 mph 1021.3mb 48f 47f
4:50pm 9ft 8s 6s 29 38 mph 1021.5mb 48f 47f
3:50pm 8ft 14s 6s 27 34 mph 1021.8mb 48f 47f
2:50pm 6ft 14s 6s 27 34 mph 1022.1mb 48f 47f
1:50pm 6ft 14s 6s 20 25 mph 1022.4mb 48f 47f
12:50pm 5.5ft 14s 7s 13 18 mph 1022.5mb 49f 47f
11:50am 5ft 14s 7s 9 11 mph 1022.9mb 49f 47f
10:50am 5ft 15s 7s 7 9 mph 1022.7mb 49f 46f
9:50am 5ft 15s 8s 7 9 mph 1022.2mb 48f 46f
8:50am 4.5ft 14s 8s 4 9 mph 1022.2mb 48f 46f
7:50am 5ft 15s 8s 7 9 mph 1021.8mb 49f 46f
6:50am 5ft 15s 8s 7
mph
1021.4mb 49f 46f
5:50am 5ft 15s 8s 2 7 mph 1020.3mb 48f 46f
4:50am 5.5ft 15s 8s 4 7 mph 1020.3mb 48f 46f
3:50am 4.5ft 13s 7s 2 4 mph 1019.6mb 48f 47f
2:50am 5ft 15s 7s 4
mph
1019.4mb 48f 47f
1:50am 5ft 15s 8s 4 7 mph 1019.6mb 49f 47f
12:50am 5ft 15s 8s 4
mph
1019.7mb 49f 47f
Sun 04/13 11:50pm 5.5ft 15s 8s 7 9 mph 1019.5mb 49f 47f
10:50pm 5ft 15s 7s 4 7 mph 1019.6mb 49f 47f
9:50pm 5ft 15s 7s 2
mph
1019.6mb 49f 47f
8:50pm 5ft 15s 7s 4 7 mph 1019mb 48f 47f
7:50pm 4.5ft 16s 7s 7 9 mph 1018mb 48f 48f
6:50pm 5ft 16s 7s 7
mph
1018mb 49f 49f
5:50pm 5ft 16s 7s 4 9 mph 1018.2mb 49f 50f
4:50pm 5ft 16s 7s 2 4 mph 1018.5mb 49f 50f
3:50pm 5ft 16s 7s 7 9 mph 1018.7mb 49f 49f
2:50pm 5ft 16s 7s 7
mph
1018.9mb 49f 48f
1:50pm 5.5ft 16s 7s 9 11 mph 1018.6mb 49f 47f
12:50pm  -   -   -  7
mph
1019mb 49f 47f
11:50am 5.5ft 11s 7s 7 9 mph 1019.2mb 48f 47f
10:50am 5ft 11s 6s 7 9 mph 1019.4mb 48f 47f
9:50am 6ft 10s 7s 7
mph
1019.1mb 48f 47f
8:50am 7ft 10s 7s 7 9 mph 1018.7mb 47f 46f
7:50am 7ft 11s 6s 18 20 mph 1017.8mb 47f 46f